• Join FlightAware (Why Join?)
  • Login
  • US Flag 
10:24PM EDT


 

Airport Tracker/Info


-or-


 

Live Flight TrackerFlight Track Log ✈ N27XP ✈ 31-Mar-2014 ✈ KGMU - KSOP

Flight Track Log - Related Links

Times and Time Zones

All times are in EDT time to prevent confusion due to time zone crossing. See the N27XP flight status page for this flight to view local times or setup timezone preferences in your user account.

Time Position Orientation Groundspeed Altitude Reporting Facility
EDT Latitude Longitude Course Direction KTS MPH feet Rate Location/Type
05:08PM 34.7147 -82.2875 150° Southeast 209 241 7,700  Level Atlanta Center
05:09PM 34.6494 -82.2461 152° Southeast 244 281 10,300 2,580 Climbing Atlanta Center
05:10PM 34.6086 -82.1711 123° Southeast 264 304 12,900 2,280 Climbing Atlanta Center
05:11PM 34.6383 -82.0669 71° East 253 291 14,900 1,920 Climbing Atlanta Center
05:12PM 34.6656 -81.9553 73° East 293 337 16,800 960 Climbing Atlanta Center
05:13PM 34.6931 -81.8483 73° East 328 377 16,900 60 Climbing Atlanta Center
05:14PM 34.7258 -81.7111 74° East 375 432 17,000  Climbing Atlanta Center
05:15PM 34.7589 -81.5761 73° East 406 467 16,900 -60 Descending Atlanta Center
05:16PM 34.7894 -81.4414 75° East 412 474 16,900  Level Atlanta Center
05:17PM 34.8219 -81.3086 73° East 412 474 16,900  Level Atlanta Center
05:18PM 34.8525 -81.1761 74° East 412 474 17,000  Climbing Atlanta Center
05:19PM 34.8886 -81.0306 73° East 412 474 17,000 -120 Level Atlanta Center
05:19PM 34.8864 -81.0281 137° Southeast 412 474 16,900  Descending Atlanta Center
05:20PM 34.9131 -80.9283 72° East 413 475 17,000  Climbing Atlanta Center
05:20PM 34.9183 -80.8928 80° East 407 468 16,900 -720 Descending Atlanta Center
05:21PM 34.9506 -80.7597 74° East 407 468 16,100 -1,320 Descending Atlanta Center
05:22PM 34.9711 -80.6728 74° East 413 475 14,800 -2,040 Descending Atlanta Center
05:22PM 34.9822 -80.6242 74° East 407 468 14,100 -1,920 Descending Atlanta Center
05:23PM 35.0028 -80.5344 74° East 388 447 12,700 -1,800 Descending Atlanta Center
05:23PM 35.0100 -80.5011 75° East 397 457 12,300 -1,680 Descending Atlanta Center
05:24PM 35.0289 -80.4269 73° East 359 413 11,200 -1,740 Descending Atlanta Center
05:24PM 35.0378 -80.3833 76° East 375 432 10,600 -1,500 Descending Atlanta Center
05:25PM 35.0639 -80.2731 74° East 351 404 9,200 -840 Descending Atlanta Center
05:26PM 35.0856 -80.1706 75° East 327 376 9,000 -120 Descending Atlanta Center
05:27PM 35.1075 -80.0706 75° East 313 360 9,000  Level Atlanta Center
05:28PM 35.1258 -79.9936 74° East 300 345 9,000 -480 Level Atlanta Center
05:29PM 35.1344 -79.8761 85° East 300 345 8,100 -1,080 Descending Atlanta Center
05:30PM 35.1456 -79.7742 82° East 300 345 6,900 -1,200 Descending Atlanta Center
05:31PM 35.1569 -79.6819 81° East 289 333 5,700 -720 Descending Atlanta Center
05:32PM 35.1678 -79.5772 83° East 283 326 5,500 -240 Descending Atlanta Center